Cotati, CA

12:44 PM PST on December 07, 2016 (GMT -0800)
Bright Star Weather Station | | Change Station

Elev 114 ft 38.23 °N, 122.67 °W | Updated 13 seconds ago

Mostly Cloudy
Mostly Cloudy
48.4 °F
Feels Like 48.4 °F
N
0.2
Wind Variable Wind from South
Gusts 0.2 mph

Today
High -- | Low -- °F
--% Chance of Precip.
Yesterday
High -- | Low -- °F
Precip. -- in
Pressure 30.18 in
Visibility 10.0 miles
Clouds Mostly Cloudy 8000 ft
Dew Point 39.8 °F
Humidity 72%
Rainfall 0.00 in
Snow Depth Not available.
7:14 AM 4:50 PM
First Quarter, 55% visible
METAR KO69 072035Z AUTO 13004KT 10SM BKN080 09/00 A3018 RMK AO1
Pressure 30.18 in
Visibility 10.0 miles
Clouds Mostly Cloudy 8000 ft
Dew Point 39.8 °F
Humidity 72%
Rainfall 0.00 in
Snow Depth Not available.
7:14 AM 4:50 PM
First Quarter, 55% visible
METAR KO69 072035Z AUTO 13004KT 10SM BKN080 09/00 A3018 RMK AO1

10-Day Weather Forecast

Almanac

Astronomy

Dec. 07, 2016 Rise Set
Actual Time
Civil Twilight
Nautical Twilight
Astronomical Twilight
Moon
Length of Visible Light
Length of Day
Tomorrow will be .
, % of the Moon is Illuminated

Today's Extremes

State Highs State Lows

Community

WunderPhotos

Upload Photos

1,956,170 photos uploaded!

WunderBlog® & News

Nearby

Air Quality

  Air Quality AQ Index Pollutant
Not available.

Snow Depth

Station Depth Elevation

Earthquake Activity

City Distance Mag. Time & Date
Minimum magnitude displayed is 2.5.

Coastal Water Temperatures

Place Temperature

Stations

Nearby Weather Stations

Station Location Temp. Windchill Dew Point Humidity Wind Precip. Elev Updated Type
                   

Watches & Warnings

There are currently no watches in effect.